sensor_id;sensor_type;location;lat;lon;timestamp;P1;durP1;ratioP1;P2;durP2;ratioP2
49842;SDS011;55559;48.898;9.184;2022-12-05T00:00:51;38.90;;;17.65;;
49842;SDS011;55559;48.898;9.184;2022-12-05T00:03:21;36.15;;;17.00;;
49842;SDS011;55559;48.898;9.184;2022-12-05T00:05:48;36.38;;;16.38;;
49842;SDS011;55559;48.898;9.184;2022-12-05T00:08:16;31.92;;;16.63;;
49842;SDS011;55559;48.898;9.184;2022-12-05T00:10:43;27.35;;;14.52;;
49842;SDS011;55559;48.898;9.184;2022-12-05T00:13:11;31.08;;;14.98;;
49842;SDS011;55559;48.898;9.184;2022-12-05T00:15:39;29.48;;;15.20;;
49842;SDS011;55559;48.898;9.184;2022-12-05T00:18:07;30.83;;;14.52;;
49842;SDS011;55559;48.898;9.184;2022-12-05T00:20:35;25.55;;;13.13;;
49842;SDS011;55559;48.898;9.184;2022-12-05T00:23:03;28.10;;;13.38;;
49842;SDS011;55559;48.898;9.184;2022-12-05T00:25:30;29.35;;;15.05;;
49842;SDS011;55559;48.898;9.184;2022-12-05T00:27:58;27.42;;;13.73;;
49842;SDS011;55559;48.898;9.184;2022-12-05T00:30:25;28.77;;;14.30;;
49842;SDS011;55559;48.898;9.184;2022-12-05T00:32:53;32.17;;;14.70;;
49842;SDS011;55559;48.898;9.184;2022-12-05T00:35:20;30.10;;;14.13;;
49842;SDS011;55559;48.898;9.184;2022-12-05T00:37:52;25.27;;;13.05;;
49842;SDS011;55559;48.898;9.184;2022-12-05T00:40:20;26.05;;;13.93;;
49842;SDS011;55559;48.898;9.184;2022-12-05T00:42:47;26.95;;;13.18;;
49842;SDS011;55559;48.898;9.184;2022-12-05T00:45:14;25.38;;;13.27;;
49842;SDS011;55559;48.898;9.184;2022-12-05T00:47:42;27.00;;;13.45;;
49842;SDS011;55559;48.898;9.184;2022-12-05T00:50:09;30.33;;;14.15;;
49842;SDS011;55559;48.898;9.184;2022-12-05T00:52:38;28.55;;;14.38;;
49842;SDS011;55559;48.898;9.184;2022-12-05T00:55:07;31.65;;;15.38;;
49842;SDS011;55559;48.898;9.184;2022-12-05T00:57:35;34.78;;;15.65;;
49842;SDS011;55559;48.898;9.184;2022-12-05T01:00:03;33.10;;;14.52;;
49842;SDS011;55559;48.898;9.184;2022-12-05T01:04:59;25.98;;;13.60;;
49842;SDS011;55559;48.898;9.184;2022-12-05T01:07:27;31.08;;;14.65;;
49842;SDS011;55559;48.898;9.184;2022-12-05T01:09:54;33.30;;;16.05;;
49842;SDS011;55559;48.898;9.184;2022-12-05T01:12:23;31.60;;;15.70;;
49842;SDS011;55559;48.898;9.184;2022-12-05T01:14:52;36.53;;;15.65;;
49842;SDS011;55559;48.898;9.184;2022-12-05T01:17:19;33.90;;;15.25;;
49842;SDS011;55559;48.898;9.184;2022-12-05T01:19:47;35.55;;;16.73;;
49842;SDS011;55559;48.898;9.184;2022-12-05T01:22:15;30.85;;;15.68;;
49842;SDS011;55559;48.898;9.184;2022-12-05T01:24:42;33.35;;;15.40;;
49842;SDS011;55559;48.898;9.184;2022-12-05T01:27:10;36.40;;;16.25;;
49842;SDS011;55559;48.898;9.184;2022-12-05T01:29:39;37.75;;;16.73;;
49842;SDS011;55559;48.898;9.184;2022-12-05T01:32:06;33.70;;;16.27;;
49842;SDS011;55559;48.898;9.184;2022-12-05T01:34:33;35.63;;;17.05;;
49842;SDS011;55559;48.898;9.184;2022-12-05T01:37:01;39.53;;;16.95;;
49842;SDS011;55559;48.898;9.184;2022-12-05T01:39:29;36.22;;;16.33;;
49842;SDS011;55559;48.898;9.184;2022-12-05T01:41:56;34.92;;;16.20;;
49842;SDS011;55559;48.898;9.184;2022-12-05T01:47:32;29.58;;;14.80;;
49842;SDS011;55559;48.898;9.184;2022-12-05T01:50:01;33.30;;;14.80;;
49842;SDS011;55559;48.898;9.184;2022-12-05T01:52:29;29.73;;;15.35;;
49842;SDS011;55559;48.898;9.184;2022-12-05T01:55:02;32.65;;;15.77;;
49842;SDS011;55559;48.898;9.184;2022-12-05T01:57:32;33.53;;;15.93;;
49842;SDS011;55559;48.898;9.184;2022-12-05T02:00:01;39.35;;;17.05;;
49842;SDS011;55559;48.898;9.184;2022-12-05T02:02:41;35.15;;;15.85;;
49842;SDS011;55559;48.898;9.184;2022-12-05T02:05:14;32.80;;;16.50;;
49842;SDS011;55559;48.898;9.184;2022-12-05T02:07:44;35.20;;;15.38;;
49842;SDS011;55559;48.898;9.184;2022-12-05T02:10:14;35.53;;;15.93;;
49842;SDS011;55559;48.898;9.184;2022-12-05T02:12:41;34.70;;;16.42;;
49842;SDS011;55559;48.898;9.184;2022-12-05T02:15:15;33.05;;;16.05;;
49842;SDS011;55559;48.898;9.184;2022-12-05T02:17:56;31.85;;;14.73;;
49842;SDS011;55559;48.898;9.184;2022-12-05T02:20:41;32.42;;;15.07;;
49842;SDS011;55559;48.898;9.184;2022-12-05T02:29:24;28.23;;;13.68;;
49842;SDS011;55559;48.898;9.184;2022-12-05T02:32:02;33.58;;;14.02;;
49842;SDS011;55559;48.898;9.184;2022-12-05T02:34:34;31.77;;;13.95;;
49842;SDS011;55559;48.898;9.184;2022-12-05T02:37:11;32.67;;;15.10;;
49842;SDS011;55559;48.898;9.184;2022-12-05T02:39:45;30.70;;;14.82;;
49842;SDS011;55559;48.898;9.184;2022-12-05T02:42:20;33.47;;;14.82;;
49842;SDS011;55559;48.898;9.184;2022-12-05T02:44:55;30.20;;;14.70;;
49842;SDS011;55559;48.898;9.184;2022-12-05T02:47:28;26.88;;;14.65;;
49842;SDS011;55559;48.898;9.184;2022-12-05T02:49:59;27.23;;;13.00;;
49842;SDS011;55559;48.898;9.184;2022-12-05T02:52:27;24.20;;;13.38;;
49842;SDS011;55559;48.898;9.184;2022-12-05T02:54:58;28.17;;;13.38;;
49842;SDS011;55559;48.898;9.184;2022-12-05T02:57:26;28.08;;;13.52;;
49842;SDS011;55559;48.898;9.184;2022-12-05T02:59:54;26.13;;;12.95;;
49842;SDS011;55559;48.898;9.184;2022-12-05T03:02:22;24.60;;;11.77;;
49842;SDS011;55559;48.898;9.184;2022-12-05T03:04:53;22.65;;;11.20;;
49842;SDS011;55559;48.898;9.184;2022-12-05T03:07:24;26.00;;;12.00;;
49842;SDS011;55559;48.898;9.184;2022-12-05T03:09:55;22.48;;;12.20;;
49842;SDS011;55559;48.898;9.184;2022-12-05T03:12:25;24.75;;;12.88;;
49842;SDS011;55559;48.898;9.184;2022-12-05T03:14:59;20.67;;;11.10;;
49842;SDS011;55559;48.898;9.184;2022-12-05T03:20:03;24.42;;;11.77;;
49842;SDS011;55559;48.898;9.184;2022-12-05T03:22:34;22.17;;;12.18;;
49842;SDS011;55559;48.898;9.184;2022-12-05T03:25:04;19.98;;;10.43;;
49842;SDS011;55559;48.898;9.184;2022-12-05T03:27:34;19.38;;;10.07;;
49842;SDS011;55559;48.898;9.184;2022-12-05T03:30:11;24.52;;;12.02;;
49842;SDS011;55559;48.898;9.184;2022-12-05T03:32:42;21.42;;;11.20;;
49842;SDS011;55559;48.898;9.184;2022-12-05T03:35:19;22.17;;;10.77;;
49842;SDS011;55559;48.898;9.184;2022-12-05T03:37:52;20.77;;;10.13;;
49842;SDS011;55559;48.898;9.184;2022-12-05T03:40:28;21.77;;;11.13;;
49842;SDS011;55559;48.898;9.184;2022-12-05T03:43:01;19.13;;;10.25;;
49842;SDS011;55559;48.898;9.184;2022-12-05T03:45:36;16.42;;;10.15;;
49842;SDS011;55559;48.898;9.184;2022-12-05T03:48:12;23.15;;;10.68;;
49842;SDS011;55559;48.898;9.184;2022-12-05T03:50:47;22.25;;;11.20;;
49842;SDS011;55559;48.898;9.184;2022-12-05T03:53:18;21.08;;;11.45;;
49842;SDS011;55559;48.898;9.184;2022-12-05T03:55:56;19.10;;;10.30;;
49842;SDS011;55559;48.898;9.184;2022-12-05T03:58:30;20.50;;;11.05;;
49842;SDS011;55559;48.898;9.184;2022-12-05T04:01:03;20.60;;;9.90;;
49842;SDS011;55559;48.898;9.184;2022-12-05T04:03:42;19.30;;;10.25;;
49842;SDS011;55559;48.898;9.184;2022-12-05T04:06:17;21.83;;;10.60;;
49842;SDS011;55559;48.898;9.184;2022-12-05T04:08:52;18.45;;;10.18;;
49842;SDS011;55559;48.898;9.184;2022-12-05T04:11:22;19.48;;;10.75;;
49842;SDS011;55559;48.898;9.184;2022-12-05T04:13:53;23.52;;;11.43;;
49842;SDS011;55559;48.898;9.184;2022-12-05T04:16:26;17.10;;;9.95;;
49842;SDS011;55559;48.898;9.184;2022-12-05T04:19:16;21.52;;;11.05;;
49842;SDS011;55559;48.898;9.184;2022-12-05T04:21:51;24.20;;;11.07;;
49842;SDS011;55559;48.898;9.184;2022-12-05T04:24:22;18.30;;;10.85;;
49842;SDS011;55559;48.898;9.184;2022-12-05T04:27:24;17.63;;;9.77;;
49842;SDS011;55559;48.898;9.184;2022-12-05T04:29:57;22.88;;;11.23;;
49842;SDS011;55559;48.898;9.184;2022-12-05T04:32:48;20.92;;;10.32;;
49842;SDS011;55559;48.898;9.184;2022-12-05T04:35:21;23.52;;;11.50;;
49842;SDS011;55559;48.898;9.184;2022-12-05T04:37:55;22.77;;;11.10;;
49842;SDS011;55559;48.898;9.184;2022-12-05T04:40:28;22.05;;;11.77;;
49842;SDS011;55559;48.898;9.184;2022-12-05T04:43:00;22.88;;;11.93;;
49842;SDS011;55559;48.898;9.184;2022-12-05T04:45:29;20.35;;;11.48;;
49842;SDS011;55559;48.898;9.184;2022-12-05T04:48:00;20.50;;;9.98;;
49842;SDS011;55559;48.898;9.184;2022-12-05T04:50:33;23.27;;;11.85;;
49842;SDS011;55559;48.898;9.184;2022-12-05T04:53:06;22.23;;;11.00;;
49842;SDS011;55559;48.898;9.184;2022-12-05T04:55:36;24.63;;;10.90;;
49842;SDS011;55559;48.898;9.184;2022-12-05T04:58:09;27.33;;;11.85;;
49842;SDS011;55559;48.898;9.184;2022-12-05T05:00:43;21.58;;;11.02;;
49842;SDS011;55559;48.898;9.184;2022-12-05T05:03:24;20.80;;;10.93;;
49842;SDS011;55559;48.898;9.184;2022-12-05T05:05:56;21.52;;;11.13;;
49842;SDS011;55559;48.898;9.184;2022-12-05T05:08:26;21.60;;;10.85;;
49842;SDS011;55559;48.898;9.184;2022-12-05T05:11:03;21.83;;;10.32;;
49842;SDS011;55559;48.898;9.184;2022-12-05T05:13:35;23.80;;;10.93;;
49842;SDS011;55559;48.898;9.184;2022-12-05T05:16:03;27.10;;;12.68;;
49842;SDS011;55559;48.898;9.184;2022-12-05T05:18:30;21.90;;;10.93;;
49842;SDS011;55559;48.898;9.184;2022-12-05T05:20:58;22.90;;;11.63;;
49842;SDS011;55559;48.898;9.184;2022-12-05T05:23:27;27.77;;;11.27;;
49842;SDS011;55559;48.898;9.184;2022-12-05T05:25:54;22.85;;;11.65;;
49842;SDS011;55559;48.898;9.184;2022-12-05T05:28:22;25.15;;;12.25;;
49842;SDS011;55559;48.898;9.184;2022-12-05T05:30:50;22.73;;;11.52;;
49842;SDS011;55559;48.898;9.184;2022-12-05T05:33:17;27.15;;;12.18;;
49842;SDS011;55559;48.898;9.184;2022-12-05T05:35:45;22.98;;;12.10;;
49842;SDS011;55559;48.898;9.184;2022-12-05T05:38:12;32.83;;;12.75;;
49842;SDS011;55559;48.898;9.184;2022-12-05T05:40:41;25.45;;;12.82;;
49842;SDS011;55559;48.898;9.184;2022-12-05T05:43:09;25.48;;;12.90;;
49842;SDS011;55559;48.898;9.184;2022-12-05T05:45:36;23.58;;;12.75;;
49842;SDS011;55559;48.898;9.184;2022-12-05T05:48:04;27.88;;;12.38;;
49842;SDS011;55559;48.898;9.184;2022-12-05T05:50:31;26.70;;;12.93;;
49842;SDS011;55559;48.898;9.184;2022-12-05T05:52:59;32.42;;;14.40;;
49842;SDS011;55559;48.898;9.184;2022-12-05T05:55:26;26.90;;;13.38;;
49842;SDS011;55559;48.898;9.184;2022-12-05T05:57:55;28.52;;;13.20;;
49842;SDS011;55559;48.898;9.184;2022-12-05T06:00:29;27.52;;;13.07;;
49842;SDS011;55559;48.898;9.184;2022-12-05T06:02:56;24.02;;;13.20;;
49842;SDS011;55559;48.898;9.184;2022-12-05T06:05:23;25.52;;;12.60;;
49842;SDS011;55559;48.898;9.184;2022-12-05T06:07:51;24.92;;;12.43;;
49842;SDS011;55559;48.898;9.184;2022-12-05T06:10:18;27.98;;;12.95;;
49842;SDS011;55559;48.898;9.184;2022-12-05T06:12:46;29.30;;;14.07;;
49842;SDS011;55559;48.898;9.184;2022-12-05T06:15:21;32.05;;;13.57;;
49842;SDS011;55559;48.898;9.184;2022-12-05T06:17:56;28.95;;;12.73;;
49842;SDS011;55559;48.898;9.184;2022-12-05T06:20:23;31.40;;;13.45;;
49842;SDS011;55559;48.898;9.184;2022-12-05T06:22:51;31.13;;;15.30;;
49842;SDS011;55559;48.898;9.184;2022-12-05T06:25:18;33.58;;;13.65;;
49842;SDS011;55559;48.898;9.184;2022-12-05T06:27:46;30.48;;;13.40;;
49842;SDS011;55559;48.898;9.184;2022-12-05T06:30:15;30.17;;;14.48;;
49842;SDS011;55559;48.898;9.184;2022-12-05T06:32:43;32.30;;;15.52;;
49842;SDS011;55559;48.898;9.184;2022-12-05T06:35:10;23.77;;;12.82;;
49842;SDS011;55559;48.898;9.184;2022-12-05T06:37:40;28.65;;;13.93;;
49842;SDS011;55559;48.898;9.184;2022-12-05T06:40:08;37.60;;;17.55;;
49842;SDS011;55559;48.898;9.184;2022-12-05T06:42:36;36.45;;;16.58;;
49842;SDS011;55559;48.898;9.184;2022-12-05T06:45:04;29.85;;;13.90;;
49842;SDS011;55559;48.898;9.184;2022-12-05T06:47:34;27.80;;;13.98;;
49842;SDS011;55559;48.898;9.184;2022-12-05T06:50:01;32.45;;;14.30;;
49842;SDS011;55559;48.898;9.184;2022-12-05T06:52:29;33.80;;;13.85;;
49842;SDS011;55559;48.898;9.184;2022-12-05T06:54:57;31.60;;;15.43;;
49842;SDS011;55559;48.898;9.184;2022-12-05T06:57:26;35.10;;;13.73;;
49842;SDS011;55559;48.898;9.184;2022-12-05T06:59:54;27.05;;;12.68;;
49842;SDS011;55559;48.898;9.184;2022-12-05T07:02:46;26.60;;;12.82;;
49842;SDS011;55559;48.898;9.184;2022-12-05T07:05:15;28.65;;;14.13;;
49842;SDS011;55559;48.898;9.184;2022-12-05T07:07:42;30.75;;;15.73;;
49842;SDS011;55559;48.898;9.184;2022-12-05T07:10:10;37.63;;;14.50;;
49842;SDS011;55559;48.898;9.184;2022-12-05T07:12:38;33.08;;;16.35;;
49842;SDS011;55559;48.898;9.184;2022-12-05T07:15:06;35.45;;;14.90;;
49842;SDS011;55559;48.898;9.184;2022-12-05T07:17:34;30.80;;;15.25;;
49842;SDS011;55559;48.898;9.184;2022-12-05T07:20:05;32.33;;;15.10;;
49842;SDS011;55559;48.898;9.184;2022-12-05T07:22:35;31.10;;;14.73;;
49842;SDS011;55559;48.898;9.184;2022-12-05T07:25:03;30.25;;;15.38;;
49842;SDS011;55559;48.898;9.184;2022-12-05T07:27:31;28.23;;;14.02;;
49842;SDS011;55559;48.898;9.184;2022-12-05T07:29:59;32.40;;;14.98;;
49842;SDS011;55559;48.898;9.184;2022-12-05T07:32:30;25.33;;;13.25;;
49842;SDS011;55559;48.898;9.184;2022-12-05T07:34:58;25.67;;;13.65;;
49842;SDS011;55559;48.898;9.184;2022-12-05T07:37:28;33.60;;;14.63;;
49842;SDS011;55559;48.898;9.184;2022-12-05T07:39:55;31.67;;;13.85;;
49842;SDS011;55559;48.898;9.184;2022-12-05T07:42:23;35.10;;;12.77;;
49842;SDS011;55559;48.898;9.184;2022-12-05T07:44:50;30.30;;;14.15;;
49842;SDS011;55559;48.898;9.184;2022-12-05T07:47:18;32.28;;;13.32;;
49842;SDS011;55559;48.898;9.184;2022-12-05T07:49:45;25.02;;;12.43;;
49842;SDS011;55559;48.898;9.184;2022-12-05T07:52:13;27.85;;;12.43;;
49842;SDS011;55559;48.898;9.184;2022-12-05T07:54:42;32.08;;;13.40;;
49842;SDS011;55559;48.898;9.184;2022-12-05T07:57:09;24.75;;;13.13;;
49842;SDS011;55559;48.898;9.184;2022-12-05T07:59:36;25.00;;;12.93;;
49842;SDS011;55559;48.898;9.184;2022-12-05T08:02:04;28.40;;;13.55;;
49842;SDS011;55559;48.898;9.184;2022-12-05T08:04:32;27.02;;;12.68;;
49842;SDS011;55559;48.898;9.184;2022-12-05T08:06:59;23.65;;;13.15;;
49842;SDS011;55559;48.898;9.184;2022-12-05T08:09:27;27.52;;;12.82;;
49842;SDS011;55559;48.898;9.184;2022-12-05T08:11:56;23.17;;;11.32;;
49842;SDS011;55559;48.898;9.184;2022-12-05T08:14:23;27.40;;;14.30;;
49842;SDS011;55559;48.898;9.184;2022-12-05T08:16:50;30.55;;;13.30;;
49842;SDS011;55559;48.898;9.184;2022-12-05T08:19:18;26.30;;;12.75;;
49842;SDS011;55559;48.898;9.184;2022-12-05T08:21:45;23.85;;;11.27;;
49842;SDS011;55559;48.898;9.184;2022-12-05T08:24:13;29.25;;;12.13;;
49842;SDS011;55559;48.898;9.184;2022-12-05T08:26:40;29.58;;;12.77;;
49842;SDS011;55559;48.898;9.184;2022-12-05T08:29:10;31.40;;;13.85;;
49842;SDS011;55559;48.898;9.184;2022-12-05T08:31:39;29.65;;;13.73;;
49842;SDS011;55559;48.898;9.184;2022-12-05T08:34:09;28.30;;;13.30;;
49842;SDS011;55559;48.898;9.184;2022-12-05T08:36:38;26.85;;;12.95;;
49842;SDS011;55559;48.898;9.184;2022-12-05T08:39:06;28.83;;;13.48;;
49842;SDS011;55559;48.898;9.184;2022-12-05T08:41:38;28.70;;;13.85;;
49842;SDS011;55559;48.898;9.184;2022-12-05T08:44:06;25.85;;;12.80;;
49842;SDS011;55559;48.898;9.184;2022-12-05T08:46:36;30.02;;;13.45;;
49842;SDS011;55559;48.898;9.184;2022-12-05T08:49:04;27.98;;;13.55;;
49842;SDS011;55559;48.898;9.184;2022-12-05T08:51:32;23.90;;;11.90;;
49842;SDS011;55559;48.898;9.184;2022-12-05T08:54:00;22.63;;;11.93;;
49842;SDS011;55559;48.898;9.184;2022-12-05T08:56:29;33.10;;;17.38;;
49842;SDS011;55559;48.898;9.184;2022-12-05T08:58:59;25.10;;;12.55;;
49842;SDS011;55559;48.898;9.184;2022-12-05T09:01:27;19.65;;;11.00;;
49842;SDS011;55559;48.898;9.184;2022-12-05T09:03:57;23.65;;;13.63;;
49842;SDS011;55559;48.898;9.184;2022-12-05T09:06:26;29.38;;;14.15;;
49842;SDS011;55559;48.898;9.184;2022-12-05T09:08:55;23.23;;;12.35;;
49842;SDS011;55559;48.898;9.184;2022-12-05T09:11:28;26.75;;;12.55;;
49842;SDS011;55559;48.898;9.184;2022-12-05T09:13:57;22.15;;;11.93;;
49842;SDS011;55559;48.898;9.184;2022-12-05T09:16:27;24.70;;;11.95;;
49842;SDS011;55559;48.898;9.184;2022-12-05T09:18:59;21.20;;;11.75;;
49842;SDS011;55559;48.898;9.184;2022-12-05T09:21:28;25.65;;;11.48;;
49842;SDS011;55559;48.898;9.184;2022-12-05T09:23:57;26.25;;;13.98;;
49842;SDS011;55559;48.898;9.184;2022-12-05T09:26:26;25.25;;;14.27;;
49842;SDS011;55559;48.898;9.184;2022-12-05T09:28:55;26.23;;;13.88;;
49842;SDS011;55559;48.898;9.184;2022-12-05T09:31:23;23.50;;;12.73;;
49842;SDS011;55559;48.898;9.184;2022-12-05T09:33:52;25.92;;;13.35;;
49842;SDS011;55559;48.898;9.184;2022-12-05T09:36:22;21.88;;;12.30;;
49842;SDS011;55559;48.898;9.184;2022-12-05T09:38:51;24.52;;;13.75;;
49842;SDS011;55559;48.898;9.184;2022-12-05T09:41:25;25.95;;;12.52;;
49842;SDS011;55559;48.898;9.184;2022-12-05T09:47:49;21.50;;;12.77;;
49842;SDS011;55559;48.898;9.184;2022-12-05T09:50:27;24.90;;;12.82;;
49842;SDS011;55559;48.898;9.184;2022-12-05T09:53:02;32.00;;;12.82;;
49842;SDS011;55559;48.898;9.184;2022-12-05T09:55:37;26.35;;;12.75;;
49842;SDS011;55559;48.898;9.184;2022-12-05T09:58:14;35.50;;;14.40;;
49842;SDS011;55559;48.898;9.184;2022-12-05T10:00:47;20.45;;;11.27;;
49842;SDS011;55559;48.898;9.184;2022-12-05T10:03:20;31.10;;;13.80;;
49842;SDS011;55559;48.898;9.184;2022-12-05T10:05:54;32.55;;;13.73;;
49842;SDS011;55559;48.898;9.184;2022-12-05T10:08:34;24.27;;;13.35;;
49842;SDS011;55559;48.898;9.184;2022-12-05T10:11:10;24.40;;;13.48;;
49842;SDS011;55559;48.898;9.184;2022-12-05T10:13:44;28.25;;;13.25;;
49842;SDS011;55559;48.898;9.184;2022-12-05T10:16:20;34.38;;;14.70;;
49842;SDS011;55559;48.898;9.184;2022-12-05T10:18:56;28.73;;;13.90;;
49842;SDS011;55559;48.898;9.184;2022-12-05T10:21:28;25.35;;;13.10;;
49842;SDS011;55559;48.898;9.184;2022-12-05T10:24:00;28.70;;;13.73;;
49842;SDS011;55559;48.898;9.184;2022-12-05T10:26:34;30.13;;;15.32;;
49842;SDS011;55559;48.898;9.184;2022-12-05T10:29:10;28.50;;;13.38;;
49842;SDS011;55559;48.898;9.184;2022-12-05T10:31:48;25.02;;;12.95;;
49842;SDS011;55559;48.898;9.184;2022-12-05T10:34:22;30.58;;;14.57;;
49842;SDS011;55559;48.898;9.184;2022-12-05T10:36:56;28.27;;;14.30;;
49842;SDS011;55559;48.898;9.184;2022-12-05T10:39:29;25.05;;;13.50;;
49842;SDS011;55559;48.898;9.184;2022-12-05T10:41:57;27.15;;;13.77;;
49842;SDS011;55559;48.898;9.184;2022-12-05T10:44:25;31.98;;;14.23;;
49842;SDS011;55559;48.898;9.184;2022-12-05T10:46:52;27.08;;;13.95;;
49842;SDS011;55559;48.898;9.184;2022-12-05T10:49:20;28.60;;;14.10;;
49842;SDS011;55559;48.898;9.184;2022-12-05T10:51:49;30.33;;;14.38;;
49842;SDS011;55559;48.898;9.184;2022-12-05T10:54:18;24.13;;;12.75;;
49842;SDS011;55559;48.898;9.184;2022-12-05T10:56:49;26.42;;;13.40;;
49842;SDS011;55559;48.898;9.184;2022-12-05T10:59:19;30.88;;;14.77;;
49842;SDS011;55559;48.898;9.184;2022-12-05T11:01:48;24.15;;;12.85;;
49842;SDS011;55559;48.898;9.184;2022-12-05T11:04:22;21.60;;;11.60;;
49842;SDS011;55559;48.898;9.184;2022-12-05T11:06:52;20.90;;;12.70;;
49842;SDS011;55559;48.898;9.184;2022-12-05T11:09:23;24.73;;;11.98;;
49842;SDS011;55559;48.898;9.184;2022-12-05T11:14:55;24.60;;;12.65;;
49842;SDS011;55559;48.898;9.184;2022-12-05T11:17:34;20.13;;;10.93;;
49842;SDS011;55559;48.898;9.184;2022-12-05T11:20:15;54.00;;;24.20;;
49842;SDS011;55559;48.898;9.184;2022-12-05T11:23:04;20.58;;;11.10;;
49842;SDS011;55559;48.898;9.184;2022-12-05T11:25:43;18.85;;;11.23;;
49842;SDS011;55559;48.898;9.184;2022-12-05T11:28:23;18.38;;;10.35;;
49842;SDS011;55559;48.898;9.184;2022-12-05T11:30:56;20.33;;;8.88;;
49842;SDS011;55559;48.898;9.184;2022-12-05T11:33:26;15.48;;;8.70;;
49842;SDS011;55559;48.898;9.184;2022-12-05T11:35:56;15.05;;;9.35;;
49842;SDS011;55559;48.898;9.184;2022-12-05T11:38:30;20.85;;;12.10;;
49842;SDS011;55559;48.898;9.184;2022-12-05T11:41:07;16.42;;;9.50;;
49842;SDS011;55559;48.898;9.184;2022-12-05T11:43:50;15.20;;;9.60;;
49842;SDS011;55559;48.898;9.184;2022-12-05T11:46:27;16.77;;;9.25;;
49842;SDS011;55559;48.898;9.184;2022-12-05T11:49:11;18.48;;;10.32;;
49842;SDS011;55559;48.898;9.184;2022-12-05T11:51:50;17.35;;;10.25;;
49842;SDS011;55559;48.898;9.184;2022-12-05T11:54:40;13.88;;;9.32;;
49842;SDS011;55559;48.898;9.184;2022-12-05T11:57:20;18.52;;;9.35;;
49842;SDS011;55559;48.898;9.184;2022-12-05T12:00:02;13.90;;;8.23;;
49842;SDS011;55559;48.898;9.184;2022-12-05T12:02:49;17.55;;;9.07;;
49842;SDS011;55559;48.898;9.184;2022-12-05T12:05:31;16.15;;;8.75;;
49842;SDS011;55559;48.898;9.184;2022-12-05T12:08:06;15.23;;;9.20;;
49842;SDS011;55559;48.898;9.184;2022-12-05T12:10:47;16.42;;;8.77;;
49842;SDS011;55559;48.898;9.184;2022-12-05T12:13:28;12.95;;;8.10;;
49842;SDS011;55559;48.898;9.184;2022-12-05T12:16:08;12.30;;;8.10;;
49842;SDS011;55559;48.898;9.184;2022-12-05T12:18:49;11.15;;;7.63;;
49842;SDS011;55559;48.898;9.184;2022-12-05T12:21:31;29.58;;;14.13;;
49842;SDS011;55559;48.898;9.184;2022-12-05T12:24:13;17.63;;;6.53;;
49842;SDS011;55559;48.898;9.184;2022-12-05T12:26:53;16.60;;;7.22;;
49842;SDS011;55559;48.898;9.184;2022-12-05T12:29:31;13.43;;;8.40;;
49842;SDS011;55559;48.898;9.184;2022-12-05T12:32:13;19.33;;;9.02;;
49842;SDS011;55559;48.898;9.184;2022-12-05T12:34:56;14.13;;;8.05;;
49842;SDS011;55559;48.898;9.184;2022-12-05T12:37:41;12.98;;;7.43;;
49842;SDS011;55559;48.898;9.184;2022-12-05T12:40:13;12.18;;;7.57;;
49842;SDS011;55559;48.898;9.184;2022-12-05T12:42:54;16.80;;;7.50;;
49842;SDS011;55559;48.898;9.184;2022-12-05T12:45:36;15.25;;;8.55;;
49842;SDS011;55559;48.898;9.184;2022-12-05T12:48:23;14.43;;;8.98;;
49842;SDS011;55559;48.898;9.184;2022-12-05T12:51:02;14.25;;;8.00;;
49842;SDS011;55559;48.898;9.184;2022-12-05T12:56:34;18.63;;;7.53;;
49842;SDS011;55559;48.898;9.184;2022-12-05T12:59:13;11.90;;;7.13;;
49842;SDS011;55559;48.898;9.184;2022-12-05T13:02:07;11.32;;;7.47;;
49842;SDS011;55559;48.898;9.184;2022-12-05T13:04:43;17.60;;;8.00;;
49842;SDS011;55559;48.898;9.184;2022-12-05T13:07:15;13.77;;;8.55;;
49842;SDS011;55559;48.898;9.184;2022-12-05T13:09:49;21.05;;;9.45;;
49842;SDS011;55559;48.898;9.184;2022-12-05T13:12:21;16.67;;;10.00;;
49842;SDS011;55559;48.898;9.184;2022-12-05T13:14:54;17.70;;;9.77;;
49842;SDS011;55559;48.898;9.184;2022-12-05T13:17:27;15.82;;;10.30;;
49842;SDS011;55559;48.898;9.184;2022-12-05T13:19:59;15.60;;;9.68;;
49842;SDS011;55559;48.898;9.184;2022-12-05T13:22:27;16.38;;;9.35;;
49842;SDS011;55559;48.898;9.184;2022-12-05T13:24:55;20.70;;;10.75;;
49842;SDS011;55559;48.898;9.184;2022-12-05T13:27:23;18.73;;;11.13;;
49842;SDS011;55559;48.898;9.184;2022-12-05T13:29:53;17.30;;;10.50;;
49842;SDS011;55559;48.898;9.184;2022-12-05T13:32:24;18.38;;;11.02;;
49842;SDS011;55559;48.898;9.184;2022-12-05T13:34:55;21.23;;;12.85;;
49842;SDS011;55559;48.898;9.184;2022-12-05T13:37:26;21.90;;;11.35;;
49842;SDS011;55559;48.898;9.184;2022-12-05T13:43:20;18.67;;;11.32;;
49842;SDS011;55559;48.898;9.184;2022-12-05T13:46:01;19.15;;;10.75;;
49842;SDS011;55559;48.898;9.184;2022-12-05T13:48:34;19.83;;;10.45;;
49842;SDS011;55559;48.898;9.184;2022-12-05T13:51:06;18.10;;;11.17;;
49842;SDS011;55559;48.898;9.184;2022-12-05T13:53:46;18.20;;;11.00;;
49842;SDS011;55559;48.898;9.184;2022-12-05T13:56:24;18.25;;;11.10;;
49842;SDS011;55559;48.898;9.184;2022-12-05T13:58:53;20.38;;;11.57;;
49842;SDS011;55559;48.898;9.184;2022-12-05T14:01:41;21.80;;;10.63;;
49842;SDS011;55559;48.898;9.184;2022-12-05T14:04:22;21.55;;;11.13;;
49842;SDS011;55559;48.898;9.184;2022-12-05T14:07:07;19.45;;;11.02;;
49842;SDS011;55559;48.898;9.184;2022-12-05T14:09:50;17.27;;;11.27;;
49842;SDS011;55559;48.898;9.184;2022-12-05T14:12:28;29.50;;;13.27;;
49842;SDS011;55559;48.898;9.184;2022-12-05T14:15:23;23.95;;;11.80;;
49842;SDS011;55559;48.898;9.184;2022-12-05T14:17:58;25.00;;;12.63;;
49842;SDS011;55559;48.898;9.184;2022-12-05T14:20:38;19.67;;;12.05;;
49842;SDS011;55559;48.898;9.184;2022-12-05T14:26:19;21.60;;;11.75;;
49842;SDS011;55559;48.898;9.184;2022-12-05T14:32:02;21.30;;;12.15;;
49842;SDS011;55559;48.898;9.184;2022-12-05T14:34:35;19.05;;;12.27;;
49842;SDS011;55559;48.898;9.184;2022-12-05T14:37:06;19.65;;;11.88;;
49842;SDS011;55559;48.898;9.184;2022-12-05T14:39:49;20.17;;;12.23;;
49842;SDS011;55559;48.898;9.184;2022-12-05T14:42:22;20.60;;;12.38;;
49842;SDS011;55559;48.898;9.184;2022-12-05T14:45:29;24.23;;;11.88;;
49842;SDS011;55559;48.898;9.184;2022-12-05T14:48:00;25.98;;;10.73;;
49842;SDS011;55559;48.898;9.184;2022-12-05T14:50:40;19.58;;;12.25;;
49842;SDS011;55559;48.898;9.184;2022-12-05T14:56:03;25.45;;;11.75;;
49842;SDS011;55559;48.898;9.184;2022-12-05T14:58:39;22.20;;;12.50;;
49842;SDS011;55559;48.898;9.184;2022-12-05T15:01:13;21.13;;;11.70;;
49842;SDS011;55559;48.898;9.184;2022-12-05T15:03:49;23.52;;;13.00;;
49842;SDS011;55559;48.898;9.184;2022-12-05T15:06:31;21.80;;;11.38;;
49842;SDS011;55559;48.898;9.184;2022-12-05T15:09:03;22.77;;;12.15;;
49842;SDS011;55559;48.898;9.184;2022-12-05T15:11:34;26.45;;;13.23;;
49842;SDS011;55559;48.898;9.184;2022-12-05T15:14:08;18.70;;;10.98;;
49842;SDS011;55559;48.898;9.184;2022-12-05T15:16:43;22.27;;;11.65;;
49842;SDS011;55559;48.898;9.184;2022-12-05T15:19:16;17.90;;;10.48;;
49842;SDS011;55559;48.898;9.184;2022-12-05T15:21:50;19.70;;;10.48;;
49842;SDS011;55559;48.898;9.184;2022-12-05T15:24:23;20.85;;;11.15;;
49842;SDS011;55559;48.898;9.184;2022-12-05T15:26:51;21.60;;;11.18;;
49842;SDS011;55559;48.898;9.184;2022-12-05T15:29:24;16.13;;;10.80;;